Terminal Aerodrome Forecast
Issued by NWS Shreveport, LA

Home | Current Version | Previous Version | Text Only | Print | Product List | Glossary On
Versions: 1 2 3 4 5 6 7 8 9 10 11 12 13 14 15 16 17 18 19 20 21
000
FTUS44 KSHV 020538
TAFTXK
TAF
KTXK 020538Z 0206/0306 00000KT P6SM SKC
      TEMPO 0210/0214 3SM BR BKN015
     FM021400 12004KT P6SM SCT015 SCT050
     FM030000 10003KT P6SM SCT250=

USA.gov is the U.S. government's official web portal to all federal, state and local government web resources and services.